createdAt,value
2022-09-12T00:01:19.396Z,51472.97
2022-09-12T00:02:21.937Z,54427.22
2022-09-12T00:03:24.743Z,54092.69
2022-09-12T00:04:28.179Z,55748.97
2022-09-12T00:05:31.090Z,53766.66
2022-09-12T00:06:36.464Z,52137.19
2022-09-12T00:07:38.642Z,56415.94
2022-09-12T00:08:40.870Z,55425.16
2022-09-12T00:09:43.293Z,54431.91
2022-09-12T00:10:45.585Z,54429.34
2022-09-12T00:11:47.907Z,52772.66
2022-09-12T00:12:50.066Z,53771.28
2022-09-12T00:13:56.289Z,51146.72
2022-09-12T00:14:59.010Z,54772.56
2022-09-12T00:16:01.214Z,53441.44
2022-09-12T00:17:03.479Z,53773.84
2022-09-12T00:18:06.279Z,54107.13
2022-09-12T00:19:09.396Z,51457.66
2022-09-12T00:20:11.783Z,50793.41
2022-09-12T00:21:15.241Z,50802.53
2022-09-12T00:22:17.353Z,53436.41
2022-09-12T00:23:19.482Z,56084.19
2022-09-12T00:24:22.059Z,52773.06
2022-09-12T00:25:24.203Z,54092.28
2022-09-12T00:26:26.731Z,52112.72
2022-09-12T00:27:28.909Z,49789.97
2022-09-12T00:28:31.025Z,47803.44
2022-09-12T00:29:33.241Z,49454.59
2022-09-12T00:30:35.358Z,49454.97
2022-09-12T00:31:37.733Z,53090.78
2022-09-12T00:32:39.933Z,55404.25
2022-09-12T00:33:42.492Z,56726.31
2022-09-12T00:34:44.600Z,58043.22
2022-09-12T00:35:53.050Z,55093.03
2022-09-12T00:36:55.184Z,56054.69
2022-09-12T00:37:57.294Z,51420.59
2022-09-12T00:38:59.472Z,46134.88
2022-09-12T00:40:02.134Z,45482.47
2022-09-12T00:41:08.882Z,47156.72
2022-09-12T00:42:12.640Z,50784.66
2022-09-12T00:43:42.163Z,50468.03
2022-09-12T00:44:48.519Z,53104.50
2022-09-12T00:45:50.739Z,55725.75
2022-09-12T00:47:16.446Z,54762.69
2022-09-12T00:48:28.176Z,50454.25
2022-09-12T00:49:46.298Z,45166.94
2022-09-12T00:50:49.893Z,47800.81
2022-09-12T00:52:12.011Z,47154.13
2022-09-12T00:53:14.263Z,45144.81
2022-09-12T00:54:22.450Z,42524.09
2022-09-12T00:55:28.637Z,39881.28
2022-09-12T00:56:31.334Z,41856.41
2022-09-12T00:57:37.565Z,40550.25
2022-09-12T00:58:45.981Z,43853.47
2022-09-12T00:59:53.249Z,47155.63
2022-09-12T01:00:56.899Z,47476.22
2022-09-12T01:01:59.268Z,47798.22
2022-09-12T01:03:06.021Z,45176.78
2022-09-12T01:04:10.009Z,48471.78
2022-09-12T01:05:13.591Z,47478.44
2022-09-12T01:06:21.990Z,47158.91
2022-09-12T01:07:24.457Z,47802.31
2022-09-12T01:08:28.583Z,46488.31
2022-09-12T01:09:31.254Z,47805.28
2022-09-12T01:10:37.346Z,48477.44
2022-09-12T01:11:40.995Z,48803.19
2022-09-12T01:12:44.211Z,51438.72
2022-09-12T01:13:46.494Z,53410.44
2022-09-12T01:14:48.762Z,53740.94
2022-09-12T01:15:50.929Z,53408.34
2022-09-12T01:16:53.160Z,55720.50
2022-09-12T01:18:13.902Z,52108.63
2022-09-12T01:19:35.177Z,52451.91
2022-09-12T01:20:50.410Z,48804.72
2022-09-12T01:22:14.190Z,47489.19
2022-09-12T01:23:37.839Z,47818.34
2022-09-12T01:25:01.545Z,54763.97
2022-09-12T01:26:09.662Z,59035.31
2022-09-12T01:27:32.914Z,54101.19
2022-09-12T01:28:35.049Z,52747.44
2022-09-12T01:29:59.008Z,50134.41
2022-09-12T01:31:08.927Z,50781.88
2022-09-12T01:32:28.631Z,52107.81
2022-09-12T01:33:39.861Z,51443.97
2022-09-12T01:35:03.752Z,53096.19
2022-09-12T01:36:27.578Z,54750.66
2022-09-12T01:37:38.749Z,59699.03
2022-09-12T01:39:01.446Z,56720.97
2022-09-12T01:40:15.241Z,57702.84
2022-09-12T01:41:20.239Z,60978.19
2022-09-12T01:42:50.109Z,57036.00
2022-09-12T01:43:55.198Z,53724.50
2022-09-12T01:45:11.913Z,44470.63
2022-09-12T01:46:21.333Z,39856.03
2022-09-12T01:47:40.732Z,42496.44
2022-09-12T01:48:55.719Z,46432.59
2022-09-12T01:50:21.599Z,44804.19
2022-09-12T01:51:31.239Z,45135.69
2022-09-12T01:52:41.347Z,46454.31
2022-09-12T01:53:50.589Z,49420.59
2022-09-12T01:55:10.210Z,49424.47
2022-09-12T01:56:15.576Z,50381.25
2022-09-12T01:57:38.257Z,50741.78
2022-09-12T01:58:50.024Z,53376.91
2022-09-12T01:59:57.390Z,53701.28
2022-09-12T02:01:15.710Z,53372.28
2022-09-12T02:03:02.550Z,52388.25
2022-09-12T02:04:12.502Z,51718.91
2022-09-12T02:05:25.235Z,50397.41
2022-09-12T02:06:40.248Z,49738.59
2022-09-12T02:07:51.619Z,50394.25
2022-09-12T02:08:59.892Z,47746.41
2022-09-12T02:10:23.533Z,48744.53
2022-09-12T02:11:25.963Z,52014.78
2022-09-12T02:12:42.010Z,49402.44
2022-09-12T02:13:51.067Z,48075.03
2022-09-12T02:15:02.480Z,44118.63
2022-09-12T02:16:12.837Z,42141.34
2022-09-12T02:17:19.154Z,42467.13
2022-09-12T02:18:21.440Z,42120.13
2022-09-12T02:19:29.606Z,41814.91
2022-09-12T02:20:47.930Z,42142.66
2022-09-12T02:21:56.024Z,44126.19
2022-09-12T02:23:00.669Z,42473.69
2022-09-12T02:24:05.409Z,46093.91
2022-09-12T02:25:11.512Z,47086.19
2022-09-12T02:26:25.833Z,47755.34
2022-09-12T02:27:37.830Z,48081.03
2022-09-12T02:28:43.149Z,49722.25
2022-09-12T02:29:45.833Z,52346.34
2022-09-12T02:31:01.253Z,50050.19
2022-09-12T02:32:11.847Z,42463.16
2022-09-12T02:33:14.019Z,36515.88
2022-09-12T02:34:19.179Z,29960.72
2022-09-12T02:35:33.880Z,33908.19
2022-09-12T02:37:11.165Z,38843.72
2022-09-12T02:38:24.012Z,43122.53
2022-09-12T02:39:26.321Z,37173.91
2022-09-12T02:40:30.355Z,30607.19
2022-09-12T02:41:32.580Z,36187.19
2022-09-12T02:42:36.728Z,39481.84
2022-09-12T02:43:38.933Z,39145.63
2022-09-12T02:44:41.746Z,39151.06
2022-09-12T02:45:44.645Z,39151.06
2022-09-12T02:46:58.644Z,38843.13
2022-09-12T02:48:23.687Z,40165.88
2022-09-12T02:49:26.085Z,44422.25
2022-09-12T02:50:29.185Z,43111.81
2022-09-12T02:51:31.519Z,43430.00
2022-09-12T02:52:34.527Z,44091.91
2022-09-12T02:53:37.993Z,43101.78
2022-09-12T02:54:40.543Z,42444.06
2022-09-12T02:55:43.216Z,42116.22
2022-09-12T02:56:46.232Z,42777.56
2022-09-12T02:57:48.386Z,47050.19
2022-09-12T02:58:50.921Z,46390.25
2022-09-12T02:59:57.067Z,42123.41
2022-09-12T03:01:11.295Z,38179.97
2022-09-12T03:02:16.467Z,40462.88
2022-09-12T03:03:54.023Z,43125.19
2022-09-12T03:05:01.646Z,46746.28
2022-09-12T03:06:35.196Z,47402.22
2022-09-12T03:08:02.198Z,47405.91
2022-09-12T03:09:33.499Z,44766.56
2022-09-12T03:10:36.026Z,46752.09
2022-09-12T03:12:08.703Z,42463.81
2022-09-12T03:13:30.797Z,44107.66
2022-09-12T03:14:43.751Z,43771.47
2022-09-12T03:16:01.015Z,43447.53
2022-09-12T03:17:24.834Z,41467.25
2022-09-12T03:18:52.462Z,40481.03
2022-09-12T03:20:09.978Z,41470.47
2022-09-12T03:21:15.565Z,42456.25
2022-09-12T03:22:28.718Z,39820.66
2022-09-12T03:23:30.790Z,42437.16
2022-09-12T03:24:38.114Z,42450.31
2022-09-12T03:25:52.788Z,45093.22
2022-09-12T03:27:01.407Z,47064.88
2022-09-12T03:28:08.409Z,47064.16
2022-09-12T03:29:13.175Z,50025.13
2022-09-12T03:30:15.496Z,52315.16
2022-09-12T03:31:19.632Z,46722.59
2022-09-12T03:32:40.564Z,46401.84
2022-09-12T03:33:43.088Z,49670.53
2022-09-12T03:34:45.285Z,47359.69
2022-09-12T03:35:48.342Z,46046.53
2022-09-12T03:36:50.693Z,45381.69
2022-09-12T03:37:53.113Z,43732.38
2022-09-12T03:38:55.509Z,43733.72
2022-09-12T03:39:57.640Z,43734.06
2022-09-12T03:41:01.145Z,41775.09
2022-09-12T03:42:03.347Z,40447.56
2022-09-12T03:43:07.985Z,37830.31
2022-09-12T03:44:10.121Z,40451.94
2022-09-12T03:45:12.226Z,40120.56
2022-09-12T03:46:14.762Z,37487.97
2022-09-12T03:47:16.879Z,40778.00
2022-09-12T03:48:19.040Z,41435.16
2022-09-12T03:49:21.139Z,41434.50
2022-09-12T03:50:23.297Z,43409.41
2022-09-12T03:51:25.503Z,45053.56
2022-09-12T03:52:27.668Z,43077.03
2022-09-12T03:53:30.764Z,42421.69
2022-09-12T03:54:32.854Z,37811.06
2022-09-12T03:55:35.091Z,37482.19
2022-09-12T03:56:37.760Z,37815.75
2022-09-12T03:57:40.418Z,38148.81
2022-09-12T03:58:42.682Z,41107.53
2022-09-12T03:59:44.983Z,42095.00
2022-09-12T04:00:47.143Z,43408.41
2022-09-12T04:01:49.307Z,41761.16
2022-09-12T04:02:56.923Z,39476.66
2022-09-12T04:03:59.051Z,41762.78
2022-09-12T04:05:01.414Z,37156.75
2022-09-12T04:06:03.718Z,36502.69
2022-09-12T04:07:05.815Z,35518.97
2022-09-12T04:08:07.953Z,36835.81
2022-09-12T04:09:10.099Z,39795.13
2022-09-12T04:10:12.224Z,43085.38
2022-09-12T04:11:15.397Z,40460.06
2022-09-12T04:12:17.545Z,39132.34
2022-09-12T04:13:19.682Z,39132.03
2022-09-12T04:14:21.834Z,39134.75
2022-09-12T04:15:24.120Z,37819.22
2022-09-12T04:16:26.287Z,38479.31
2022-09-12T04:17:28.385Z,40125.22
2022-09-12T04:18:31.086Z,39469.34
2022-09-12T04:19:33.443Z,39469.34
2022-09-12T04:20:36.464Z,36515.88
2022-09-12T04:21:39.481Z,40453.19
2022-09-12T04:22:41.628Z,42755.66
2022-09-12T04:23:44.162Z,40128.34
2022-09-12T04:24:46.381Z,37164.19
2022-09-12T04:26:00.782Z,32909.75
2022-09-12T04:27:07.622Z,34535.06
2022-09-12T04:28:10.013Z,34865.97
2022-09-12T04:29:12.675Z,36184.41
2022-09-12T04:30:14.869Z,36179.13
2022-09-12T04:31:18.421Z,32900.72
2022-09-12T04:32:22.156Z,33882.81
2022-09-12T04:33:24.354Z,35198.81
2022-09-12T04:34:26.598Z,35530.97
2022-09-12T04:35:28.693Z,37835.81
2022-09-12T04:36:31.075Z,39154.09
2022-09-12T04:37:33.210Z,39482.75
2022-09-12T04:38:36.310Z,39163.75
2022-09-12T04:39:38.755Z,40146.94
2022-09-12T04:40:40.930Z,41462.75
2022-09-12T04:41:43.149Z,41132.97
2022-09-12T04:42:45.322Z,45411.38
2022-09-12T04:43:51.721Z,40145.09
2022-09-12T04:44:54.476Z,40470.06
2022-09-12T04:45:56.647Z,41458.25
2022-09-12T04:46:58.755Z,42117.19
2022-09-12T04:48:01.019Z,42118.81
2022-09-12T04:49:03.790Z,41794.84
2022-09-12T04:50:06.505Z,42447.69
2022-09-12T04:51:23.075Z,38517.00
2022-09-12T04:52:25.270Z,41127.88
2022-09-12T04:53:27.377Z,39808.97
2022-09-12T04:54:29.481Z,39480.31
2022-09-12T04:55:34.276Z,36206.91
2022-09-12T04:56:41.272Z,36210.81
2022-09-12T04:57:43.675Z,37509.59
2022-09-12T04:58:46.878Z,39488.22
2022-09-12T04:59:49.115Z,40473.84
2022-09-12T05:00:51.245Z,40476.34
2022-09-12T05:01:53.449Z,40808.59
2022-09-12T05:02:55.600Z,41141.59
2022-09-12T05:03:59.797Z,43126.53
2022-09-12T05:05:01.913Z,45098.47
2022-09-12T05:06:05.882Z,44445.75
2022-09-12T05:07:08.058Z,45758.25
2022-09-12T05:08:10.161Z,48066.03
2022-09-12T05:09:14.056Z,46745.91
2022-09-12T05:10:16.451Z,45751.47
2022-09-12T05:11:28.232Z,42810.75
2022-09-12T05:12:36.090Z,47079.56
2022-09-12T05:13:39.135Z,49396.66
2022-09-12T05:14:41.313Z,46418.13
2022-09-12T05:15:43.438Z,47409.97
2022-09-12T05:16:49.219Z,47414.41
2022-09-12T05:17:51.817Z,46754.66
2022-09-12T05:18:54.301Z,48076.53
2022-09-12T05:19:56.435Z,50720.31
2022-09-12T05:21:08.100Z,48105.06
2022-09-12T05:22:10.287Z,55352.00
2022-09-12T05:23:12.475Z,56008.38
2022-09-12T05:24:14.651Z,54023.50
2022-09-12T05:25:17.094Z,52702.34
2022-09-12T05:26:20.594Z,51718.50
2022-09-12T05:27:22.769Z,54687.88
2022-09-12T05:28:28.703Z,50409.28
2022-09-12T05:29:31.598Z,52387.41
2022-09-12T05:30:33.743Z,51722.56
2022-09-12T05:31:35.978Z,54036.25
2022-09-12T05:32:38.082Z,53707.63
2022-09-12T05:33:42.279Z,50425.03
2022-09-12T05:34:44.413Z,56028.66
2022-09-12T05:35:52.530Z,51761.06
2022-09-12T05:36:54.637Z,54718.41
2022-09-12T05:37:56.767Z,56713.38
2022-09-12T05:39:02.079Z,56085.53
2022-09-12T05:40:07.607Z,63684.06
2022-09-12T05:41:25.141Z,65393.00
2022-09-12T05:42:29.850Z,68374.00
2022-09-12T05:43:35.901Z,70046.84
2022-09-12T05:44:37.990Z,74001.44
2022-09-12T05:45:41.502Z,79635.13
2022-09-12T05:46:45.532Z,70681.19
2022-09-12T05:47:47.773Z,73005.69
2022-09-12T05:48:55.714Z,75351.75
2022-09-12T05:49:59.742Z,76011.63
2022-09-12T05:51:10.127Z,75387.78
2022-09-12T05:52:12.612Z,76349.44
2022-09-12T05:53:14.741Z,78014.81
2022-09-12T05:54:20.380Z,73049.25
2022-09-12T05:55:23.595Z,74688.94
2022-09-12T05:56:28.297Z,74732.34
2022-09-12T05:57:30.485Z,82374.31
2022-09-12T05:58:33.810Z,84727.91
2022-09-12T05:59:35.951Z,85382.03
2022-09-12T06:00:38.084Z,82042.03
2022-09-12T06:01:40.731Z,81385.28
2022-09-12T06:02:43.001Z,79063.53
2022-09-12T06:03:49.287Z,80440.47
2022-09-12T06:04:51.452Z,86758.03
2022-09-12T06:05:53.574Z,87441.75
2022-09-12T06:06:55.733Z,94478.06
2022-09-12T06:07:57.826Z,95489.75
2022-09-12T06:09:02.144Z,94530.34
2022-09-12T06:10:05.325Z,99194.72
2022-09-12T06:11:08.393Z,99870.31
2022-09-12T06:12:10.567Z,94179.41
2022-09-12T06:13:12.899Z,97204.09
2022-09-12T06:14:16.546Z,105639.66
2022-09-12T06:15:18.677Z,108640.44
2022-09-12T06:16:26.130Z,102981.41
2022-09-12T06:17:28.297Z,108995.13
2022-09-12T06:18:30.419Z,105962.97
2022-09-12T06:19:32.583Z,108993.38
2022-09-12T06:20:36.881Z,106352.13
2022-09-12T06:21:39.965Z,113011.72
2022-09-12T06:22:42.434Z,101279.00
2022-09-12T06:23:46.204Z,98622.16
2022-09-12T06:24:48.397Z,97975.25
2022-09-12T06:25:50.626Z,100363.59
2022-09-12T06:26:52.913Z,109146.19
2022-09-12T06:27:55.200Z,117293.56
2022-09-12T06:28:59.783Z,127186.50
2022-09-12T06:30:01.992Z,136019.66
2022-09-12T06:31:29.305Z,150121.03
2022-09-12T06:32:31.729Z,150038.16
2022-09-12T06:33:38.428Z,150127.13
2022-09-12T06:34:40.545Z,150125.91
2022-09-12T06:35:42.924Z,150141.72
2022-09-12T06:36:48.181Z,150160.00
2022-09-12T06:37:50.295Z,150158.78
2022-09-12T06:39:01.041Z,150230.72
2022-09-12T06:40:03.479Z,150180.69
2022-09-12T06:41:07.584Z,150207.56
2022-09-12T06:42:10.038Z,150181.91
2022-09-12T06:43:13.769Z,150169.75
2022-09-12T06:44:18.257Z,150190.53
2022-09-12T06:45:20.943Z,150183.13
2022-09-12T06:46:23.300Z,150173.41
2022-09-12T06:47:25.421Z,150302.63
2022-09-12T06:48:28.046Z,150409.94
2022-09-12T06:49:31.811Z,150529.44
2022-09-12T06:50:34.068Z,150642.88
2022-09-12T06:51:36.341Z,150785.72
2022-09-12T06:52:38.475Z,150883.34
2022-09-12T06:53:41.535Z,151045.72
2022-09-12T06:54:43.683Z,151023.75
2022-09-12T06:55:45.807Z,151092.16
2022-09-12T06:56:48.013Z,151213.06
2022-09-12T06:57:50.266Z,151313.28
2022-09-12T06:58:53.687Z,151384.13
2022-09-12T06:59:56.187Z,151412.28
2022-09-12T07:01:17.503Z,151645.75
2022-09-12T07:02:20.122Z,151632.28
2022-09-12T07:03:22.491Z,151623.75
2022-09-12T07:04:24.589Z,151694.66
2022-09-12T07:05:26.732Z,151808.44
2022-09-12T07:06:33.924Z,151917.31
2022-09-12T07:07:36.123Z,151930.78
2022-09-12T07:08:39.301Z,151949.13
2022-09-12T07:09:41.414Z,151865.94
2022-09-12T07:10:43.541Z,151702.00
2022-09-12T07:11:46.429Z,151786.41
2022-09-12T07:12:48.524Z,151832.91
2022-09-12T07:13:53.342Z,151946.69
2022-09-12T07:14:55.649Z,151897.78
2022-09-12T07:16:01.766Z,151987.03
2022-09-12T07:17:03.971Z,151940.56
2022-09-12T07:18:06.657Z,152042.16
2022-09-12T07:19:09.712Z,152137.59
2022-09-12T07:20:11.871Z,152078.84
2022-09-12T07:21:15.482Z,152186.56
2022-09-12T07:22:17.613Z,152093.50
2022-09-12T07:23:19.716Z,152103.34
2022-09-12T07:24:21.884Z,152144.94
2022-09-12T07:25:24.076Z,152169.47
2022-09-12T07:26:30.073Z,152204.94
2022-09-12T07:27:32.165Z,152010.28
2022-09-12T07:28:34.756Z,152033.59
2022-09-12T07:29:37.943Z,152011.50
2022-09-12T07:30:40.329Z,151958.88
2022-09-12T07:31:43.195Z,151941.78
2022-09-12T07:32:45.383Z,151880.63
2022-09-12T07:33:50.107Z,151777.84
2022-09-12T07:34:55.936Z,151721.59
2022-09-12T07:36:06.507Z,151631.06
2022-09-12T07:37:08.659Z,151530.78
2022-09-12T07:38:10.776Z,151453.81
2022-09-12T07:39:12.910Z,151435.50
2022-09-12T07:40:15.211Z,151382.91
2022-09-12T07:41:20.894Z,151403.69
2022-09-12T07:42:23.294Z,151208.19
2022-09-12T07:43:25.638Z,151252.19
2022-09-12T07:44:27.747Z,151264.38
2022-09-12T07:45:30.115Z,151276.63
2022-09-12T07:46:33.695Z,151323.03
2022-09-12T07:47:35.783Z,151270.50
2022-09-12T07:48:39.119Z,151264.38
2022-09-12T07:49:41.249Z,151249.72
2022-09-12T07:50:45.201Z,151244.81
2022-09-12T07:51:47.402Z,151210.63
2022-09-12T07:52:50.462Z,151233.81
2022-09-12T07:53:53.018Z,151206.97
2022-09-12T07:54:55.135Z,151178.88
2022-09-12T07:55:57.348Z,151200.81
2022-09-12T07:56:59.555Z,151222.81
2022-09-12T07:58:01.641Z,151247.28
2022-09-12T07:59:03.975Z,151241.16
2022-09-12T08:00:09.272Z,151291.28
2022-09-12T08:01:17.625Z,151301.03
2022-09-12T08:02:20.259Z,151263.16
2022-09-12T08:03:22.703Z,151217.94
2022-09-12T08:04:25.066Z,151271.75
2022-09-12T08:05:27.249Z,151282.72
2022-09-12T08:06:31.402Z,151283.94
2022-09-12T08:07:34.135Z,151276.63
2022-09-12T08:08:37.136Z,151308.41
2022-09-12T08:09:39.298Z,151089.72
2022-09-12T08:10:41.709Z,151152.00
2022-09-12T08:11:44.147Z,151186.19
2022-09-12T08:12:46.283Z,151181.31
2022-09-12T08:13:54.344Z,151235.03
2022-09-12T08:14:57.402Z,151200.81
2022-09-12T08:16:01.355Z,151203.25
2022-09-12T08:17:03.531Z,151225.25
2022-09-12T08:18:05.714Z,151227.72
2022-09-12T08:19:07.822Z,151255.84
2022-09-12T08:20:09.977Z,151259.50
2022-09-12T08:21:14.879Z,151395.09
2022-09-12T08:22:20.045Z,151347.47
2022-09-12T08:23:23.463Z,151365.78
2022-09-12T08:24:25.629Z,151367.00
2022-09-12T08:25:28.655Z,151373.16
2022-09-12T08:26:32.699Z,151425.72
2022-09-12T08:27:34.811Z,151403.69
2022-09-12T08:28:37.927Z,151408.56
2022-09-12T08:29:40.318Z,151343.81
2022-09-12T08:30:42.484Z,151455.03
2022-09-12T08:31:44.615Z,151489.25
2022-09-12T08:32:47.236Z,151507.59
2022-09-12T08:33:49.477Z,151525.91
2022-09-12T08:34:51.724Z,151545.50
2022-09-12T08:35:53.909Z,151540.59
2022-09-12T08:36:56.056Z,151522.25
2022-09-12T08:37:58.190Z,151485.59
2022-09-12T08:39:03.753Z,151522.25
2022-09-12T08:40:06.970Z,151543.03
2022-09-12T08:41:31.356Z,151633.56
2022-09-12T08:42:52.805Z,151670.22
2022-09-12T08:44:26.270Z,151758.28
2022-09-12T08:45:39.194Z,151775.41
2022-09-12T08:46:57.169Z,151788.84
2022-09-12T08:48:03.122Z,151768.09
2022-09-12T08:49:10.701Z,151846.34
2022-09-12T08:50:19.328Z,151839.00
2022-09-12T08:51:21.999Z,151694.66
2022-09-12T08:52:30.780Z,151890.41
2022-09-12T08:53:35.978Z,151932.03
2022-09-12T08:54:39.322Z,151865.94
2022-09-12T08:55:45.786Z,151936.91
2022-09-12T08:56:48.301Z,151941.78
2022-09-12T08:57:51.941Z,151976.03
2022-09-12T08:58:54.048Z,151906.31
2022-09-12T08:59:56.533Z,151934.47
2022-09-12T09:01:20.523Z,151982.16
2022-09-12T09:02:48.238Z,152007.84
2022-09-12T09:04:18.077Z,151961.34
2022-09-12T09:05:29.394Z,152002.97
2022-09-12T09:06:56.682Z,151976.03
2022-09-12T09:08:23.610Z,151977.25
2022-09-12T09:09:46.833Z,151963.81
2022-09-12T09:10:59.448Z,151927.09
2022-09-12T09:12:07.954Z,151941.78
2022-09-12T09:13:39.006Z,151951.56
2022-09-12T09:15:04.553Z,151995.63
2022-09-12T09:16:35.466Z,151885.50
2022-09-12T09:17:46.336Z,151966.28
2022-09-12T09:18:50.510Z,151843.91
2022-09-12T09:20:22.625Z,151944.22
2022-09-12T09:21:31.753Z,151845.13
2022-09-12T09:22:44.921Z,151841.44
2022-09-12T09:23:54.136Z,151790.06
2022-09-12T09:25:02.673Z,151783.97
2022-09-12T09:26:08.858Z,151777.84
2022-09-12T09:27:42.025Z,151853.66
2022-09-12T09:28:49.909Z,151829.19
2022-09-12T09:29:55.331Z,151875.75
2022-09-12T09:30:58.073Z,151839.00
2022-09-12T09:32:03.597Z,151806.00
2022-09-12T09:33:15.546Z,151763.16
2022-09-12T09:34:23.228Z,151874.53
2022-09-12T09:35:28.373Z,151799.88
2022-09-12T09:36:58.526Z,151802.31
2022-09-12T09:38:35.176Z,151873.31
2022-09-12T09:39:43.355Z,151990.69
2022-09-12T09:41:16.215Z,151998.06
2022-09-12T09:42:32.778Z,151995.63
2022-09-12T09:43:37.960Z,152042.16
2022-09-12T09:44:40.358Z,151998.06
2022-09-12T09:45:45.788Z,152015.19
2022-09-12T09:46:55.208Z,152144.94
2022-09-12T09:48:13.315Z,152118.00
2022-09-12T09:49:22.669Z,152135.16
2022-09-12T09:50:25.260Z,152066.63
2022-09-12T09:51:33.486Z,152192.69
2022-09-12T09:52:36.152Z,152171.91
2022-09-12T09:53:46.164Z,152191.47
2022-09-12T09:54:59.618Z,152201.28
2022-09-12T09:56:09.714Z,152098.44
2022-09-12T09:57:42.438Z,152182.91
2022-09-12T09:58:44.590Z,152081.28
2022-09-12T09:59:46.746Z,152127.81
2022-09-12T10:00:49.843Z,152005.41
2022-09-12T10:02:24.250Z,152007.84
2022-09-12T10:03:55.996Z,152174.34
2022-09-12T10:04:59.749Z,152005.41
2022-09-12T10:06:07.996Z,151924.66
2022-09-12T10:07:19.458Z,151916.09
2022-09-12T10:08:28.916Z,151950.34
2022-09-12T10:09:34.317Z,151980.94
2022-09-12T10:10:36.507Z,151924.66
2022-09-12T10:11:42.567Z,152076.41
2022-09-12T10:12:47.871Z,152130.25
2022-09-12T10:13:57.875Z,152398.41
2022-09-12T10:15:02.250Z,152468.25
2022-09-12T10:16:28.937Z,152644.63
2022-09-12T10:17:43.790Z,152826.03
2022-09-12T10:18:46.255Z,152887.34
2022-09-12T10:19:59.874Z,152780.66
2022-09-12T10:21:33.529Z,152838.31
2022-09-12T10:22:35.764Z,152800.28
2022-09-12T10:23:41.018Z,152720.63
2022-09-12T10:24:49.610Z,152864.06
2022-09-12T10:26:00.126Z,152853.00
2022-09-12T10:27:14.196Z,152866.50
2022-09-12T10:28:35.667Z,152729.22
2022-09-12T10:29:48.627Z,152767.22
2022-09-12T10:30:53.182Z,152615.22
2022-09-12T10:31:59.386Z,152681.38
2022-09-12T10:33:11.565Z,152634.84
2022-09-12T10:34:25.321Z,152596.88
2022-09-12T10:35:42.396Z,152511.09
2022-09-12T10:36:44.721Z,152448.63
2022-09-12T10:37:57.001Z,152553.94
2022-09-12T10:39:02.620Z,152576.06
2022-09-12T10:40:09.248Z,152424.09
2022-09-12T10:41:11.933Z,152455.97
2022-09-12T10:42:18.301Z,152529.47
2022-09-12T10:43:34.352Z,152540.50
2022-09-12T10:44:36.600Z,152438.84
2022-09-12T10:45:38.890Z,152430.25
2022-09-12T10:46:41.070Z,152503.75
2022-09-12T10:47:43.226Z,152590.78
2022-09-12T10:49:11.986Z,152553.94
2022-09-12T10:50:36.292Z,152732.91
2022-09-12T10:51:38.378Z,152611.56
2022-09-12T10:52:40.479Z,152651.97
2022-09-12T10:53:46.337Z,152683.81
2022-09-12T10:54:48.969Z,152644.63
2022-09-12T10:55:53.879Z,152808.84
2022-09-12T10:57:08.258Z,152779.44
2022-09-12T10:58:35.213Z,152899.59
2022-09-12T11:00:14.745Z,152841.97
2022-09-12T11:01:34.152Z,152680.16
2022-09-12T11:03:16.155Z,152699.78
2022-09-12T11:04:55.380Z,152681.38
2022-09-12T11:06:01.836Z,152784.34
2022-09-12T11:07:22.770Z,152946.13
2022-09-12T11:08:36.489Z,152612.78
2022-09-12T11:10:02.879Z,152692.44
2022-09-12T11:11:17.073Z,152572.34
2022-09-12T11:12:28.249Z,152678.94
2022-09-12T11:13:48.718Z,152681.38
2022-09-12T11:15:00.580Z,152661.81
2022-09-12T11:16:24.230Z,152822.34
2022-09-12T11:17:54.032Z,152940.03
2022-09-12T11:19:24.989Z,152833.38
2022-09-12T11:20:45.805Z,152844.44
2022-09-12T11:22:31.091Z,152750.03
2022-09-12T11:24:11.266Z,152493.97
2022-09-12T11:25:40.617Z,152590.78
2022-09-12T11:27:05.502Z,152568.66
2022-09-12T11:28:24.805Z,152696.09
2022-09-12T11:29:46.802Z,152529.47
2022-09-12T11:31:00.086Z,152500.09
2022-09-12T11:32:47.831Z,152556.38
2022-09-12T11:33:56.648Z,152588.28
2022-09-12T11:35:04.966Z,152509.88
2022-09-12T11:36:12.867Z,152523.31
2022-09-12T11:37:52.875Z,152801.50
2022-09-12T11:39:10.386Z,152846.88
2022-09-12T11:40:21.464Z,152941.25
2022-09-12T11:41:31.342Z,152933.91
2022-09-12T11:42:40.077Z,153094.56
2022-09-12T11:43:46.598Z,153120.34
2022-09-12T11:45:06.146Z,153299.38
2022-09-12T11:46:28.011Z,153274.84
2022-09-12T11:47:34.622Z,153310.41
2022-09-12T11:48:43.934Z,153451.53
2022-09-12T11:49:49.995Z,153544.78
2022-09-12T11:50:52.899Z,153667.56
2022-09-12T11:52:14.756Z,153569.34
2022-09-12T11:53:28.508Z,153550.97
2022-09-12T11:54:35.608Z,153633.19
2022-09-12T11:55:50.482Z,153451.53
2022-09-12T11:57:20.789Z,153404.91
2022-09-12T11:58:26.632Z,152927.78
2022-09-12T11:59:40.395Z,153111.72
2022-09-12T12:00:53.262Z,153125.22
2022-09-12T12:01:59.824Z,153132.56
2022-09-12T12:03:13.725Z,153109.28
2022-09-12T12:04:20.870Z,153065.09
2022-09-12T12:05:36.049Z,153068.78
2022-09-12T12:07:16.138Z,153176.69
2022-09-12T12:08:20.690Z,153061.44
2022-09-12T12:09:23.473Z,153204.91
2022-09-12T12:10:43.381Z,153414.72
2022-09-12T12:11:52.551Z,153225.81
2022-09-12T12:12:56.987Z,153407.34
2022-09-12T12:14:02.550Z,153385.31
2022-09-12T12:15:05.100Z,153557.09
2022-09-12T12:16:11.960Z,153544.78
2022-09-12T12:17:19.838Z,153670.00
2022-09-12T12:18:25.534Z,153768.25
2022-09-12T12:19:34.228Z,153864.03
2022-09-12T12:20:36.604Z,153760.88
2022-09-12T12:21:42.344Z,153871.38
2022-09-12T12:22:55.242Z,154065.47
2022-09-12T12:24:09.582Z,153854.22
2022-09-12T12:25:11.628Z,153764.56
2022-09-12T12:26:39.492Z,153701.97
2022-09-12T12:27:44.621Z,153783.00
2022-09-12T12:28:50.630Z,153699.50
2022-09-12T12:29:52.754Z,153645.44
2022-09-12T12:30:54.887Z,153770.69
2022-09-12T12:32:02.344Z,153916.84
2022-09-12T12:33:27.239Z,153930.38
2022-09-12T12:34:30.831Z,153947.59
2022-09-12T12:35:36.532Z,153618.50
2022-09-12T12:36:40.626Z,153677.34
2022-09-12T12:37:42.704Z,153682.31
2022-09-12T12:38:44.843Z,153662.66
2022-09-12T12:39:48.129Z,153728.97
2022-09-12T12:40:50.471Z,153806.28
2022-09-12T12:41:52.641Z,153851.78
2022-09-12T12:43:25.855Z,153925.44
2022-09-12T12:44:49.259Z,154102.31
2022-09-12T12:46:01.688Z,153940.19
2022-09-12T12:47:25.556Z,153934.06
2022-09-12T12:48:31.897Z,153671.22
2022-09-12T12:49:34.099Z,153758.44
2022-09-12T12:50:36.545Z,153886.16
2022-09-12T12:51:48.195Z,153854.22
2022-09-12T12:53:17.180Z,153843.16
2022-09-12T12:54:40.276Z,153795.25
2022-09-12T12:55:42.385Z,153228.25
2022-09-12T12:56:44.635Z,153431.91
2022-09-12T12:57:50.063Z,153574.25
2022-09-12T12:59:00.162Z,153619.72
2022-09-12T13:00:09.677Z,153622.16
2022-09-12T13:01:18.975Z,153490.84
2022-09-12T13:02:27.240Z,153482.25
2022-09-12T13:03:32.707Z,153476.09
2022-09-12T13:04:34.994Z,153331.28
2022-09-12T13:05:49.889Z,153111.72
2022-09-12T13:07:08.800Z,153139.94
2022-09-12T13:08:31.105Z,153059.00